sensor_id;sensor_type;location;lat;lon;timestamp;P1;durP1;ratioP1;P2;durP2;ratioP2
53959;SDS011;39866;48.638;-2.020;2022-08-21T17:59:39;0.90;;;0.43;;
53959;SDS011;39866;48.638;-2.020;2022-08-21T18:02:04;0.77;;;0.50;;
53959;SDS011;39866;48.638;-2.020;2022-08-21T18:04:31;0.90;;;0.60;;
53959;SDS011;39866;48.638;-2.020;2022-08-21T18:06:57;2.00;;;0.95;;
53959;SDS011;39866;48.638;-2.020;2022-08-21T18:09:22;1.52;;;0.90;;
53959;SDS011;39866;48.638;-2.020;2022-08-21T18:11:52;2.10;;;0.98;;
53959;SDS011;39866;48.638;-2.020;2022-08-21T18:14:19;1.50;;;0.80;;
53959;SDS011;39866;48.638;-2.020;2022-08-21T18:16:49;1.08;;;0.75;;
53959;SDS011;39866;48.638;-2.020;2022-08-21T18:19:14;1.15;;;0.70;;
53959;SDS011;39866;48.638;-2.020;2022-08-21T18:21:41;1.90;;;0.60;;
53959;SDS011;39866;48.638;-2.020;2022-08-21T18:24:07;1.05;;;0.65;;
53959;SDS011;39866;48.638;-2.020;2022-08-21T18:26:36;1.13;;;0.60;;
53959;SDS011;39866;48.638;-2.020;2022-08-21T18:29:05;1.50;;;0.90;;
53959;SDS011;39866;48.638;-2.020;2022-08-21T18:31:32;1.75;;;0.98;;
53959;SDS011;39866;48.638;-2.020;2022-08-21T18:34:00;1.90;;;0.90;;
53959;SDS011;39866;48.638;-2.020;2022-08-21T18:36:28;1.50;;;0.80;;
53959;SDS011;39866;48.638;-2.020;2022-08-21T18:38:54;1.85;;;0.70;;
53959;SDS011;39866;48.638;-2.020;2022-08-21T18:41:19;2.58;;;1.00;;
53959;SDS011;39866;48.638;-2.020;2022-08-21T18:43:45;1.63;;;0.90;;
53959;SDS011;39866;48.638;-2.020;2022-08-21T18:46:11;3.17;;;0.90;;
53959;SDS011;39866;48.638;-2.020;2022-08-21T18:48:36;1.38;;;0.90;;
53959;SDS011;39866;48.638;-2.020;2022-08-21T18:51:02;1.90;;;0.90;;
53959;SDS011;39866;48.638;-2.020;2022-08-21T18:53:27;1.80;;;1.00;;
53959;SDS011;39866;48.638;-2.020;2022-08-21T18:55:53;2.22;;;0.93;;
53959;SDS011;39866;48.638;-2.020;2022-08-21T18:58:19;2.28;;;1.35;;
53959;SDS011;39866;48.638;-2.020;2022-08-21T19:00:47;2.13;;;1.23;;
53959;SDS011;39866;48.638;-2.020;2022-08-21T19:03:15;1.88;;;1.00;;
53959;SDS011;39866;48.638;-2.020;2022-08-21T19:05:43;3.15;;;2.28;;
53959;SDS011;39866;48.638;-2.020;2022-08-21T19:08:13;2.90;;;1.77;;
53959;SDS011;39866;48.638;-2.020;2022-08-21T19:10:41;2.38;;;1.40;;
53959;SDS011;39866;48.638;-2.020;2022-08-21T19:13:09;2.78;;;1.70;;
53959;SDS011;39866;48.638;-2.020;2022-08-21T19:15:36;3.03;;;1.83;;
53959;SDS011;39866;48.638;-2.020;2022-08-21T19:18:04;2.42;;;1.60;;
53959;SDS011;39866;48.638;-2.020;2022-08-21T19:20:35;3.50;;;2.03;;
53959;SDS011;39866;48.638;-2.020;2022-08-21T19:23:02;3.20;;;1.98;;
53959;SDS011;39866;48.638;-2.020;2022-08-21T19:25:30;1.55;;;1.40;;
53959;SDS011;39866;48.638;-2.020;2022-08-21T19:27:56;4.45;;;2.00;;
53959;SDS011;39866;48.638;-2.020;2022-08-21T19:30:21;2.70;;;1.80;;
53959;SDS011;39866;48.638;-2.020;2022-08-21T19:32:47;2.83;;;1.63;;
53959;SDS011;39866;48.638;-2.020;2022-08-21T19:35:14;3.92;;;1.80;;
53959;SDS011;39866;48.638;-2.020;2022-08-21T19:37:41;4.18;;;1.48;;
53959;SDS011;39866;48.638;-2.020;2022-08-21T19:40:08;2.38;;;1.60;;
53959;SDS011;39866;48.638;-2.020;2022-08-21T19:42:34;2.63;;;1.58;;
53959;SDS011;39866;48.638;-2.020;2022-08-21T19:45:00;4.15;;;1.80;;
53959;SDS011;39866;48.638;-2.020;2022-08-21T19:47:27;2.83;;;1.50;;
53959;SDS011;39866;48.638;-2.020;2022-08-21T19:49:54;3.55;;;1.60;;
53959;SDS011;39866;48.638;-2.020;2022-08-21T19:52:23;2.85;;;1.58;;
53959;SDS011;39866;48.638;-2.020;2022-08-21T19:54:48;3.45;;;1.85;;
53959;SDS011;39866;48.638;-2.020;2022-08-21T19:57:13;3.33;;;1.60;;
53959;SDS011;39866;48.638;-2.020;2022-08-21T19:59:39;2.83;;;1.30;;
53959;SDS011;39866;48.638;-2.020;2022-08-21T20:02:06;3.03;;;1.50;;
53959;SDS011;39866;48.638;-2.020;2022-08-21T20:04:33;3.22;;;1.42;;
53959;SDS011;39866;48.638;-2.020;2022-08-21T20:06:59;4.65;;;2.80;;
53959;SDS011;39866;48.638;-2.020;2022-08-21T20:09:24;6.22;;;1.90;;
53959;SDS011;39866;48.638;-2.020;2022-08-21T20:11:50;4.35;;;1.70;;
53959;SDS011;39866;48.638;-2.020;2022-08-21T20:14:19;4.22;;;1.60;;
53959;SDS011;39866;48.638;-2.020;2022-08-21T20:16:48;3.55;;;1.50;;
53959;SDS011;39866;48.638;-2.020;2022-08-21T20:19:14;4.95;;;1.67;;
53959;SDS011;39866;48.638;-2.020;2022-08-21T20:21:41;7.63;;;1.98;;
53959;SDS011;39866;48.638;-2.020;2022-08-21T20:24:08;4.10;;;1.42;;
53959;SDS011;39866;48.638;-2.020;2022-08-21T20:26:34;6.00;;;1.75;;
53959;SDS011;39866;48.638;-2.020;2022-08-21T20:28:59;2.78;;;1.30;;
53959;SDS011;39866;48.638;-2.020;2022-08-21T20:31:26;4.32;;;1.70;;
53959;SDS011;39866;48.638;-2.020;2022-08-21T20:33:51;3.58;;;1.40;;
53959;SDS011;39866;48.638;-2.020;2022-08-21T20:36:18;6.40;;;1.60;;
53959;SDS011;39866;48.638;-2.020;2022-08-21T20:38:45;2.17;;;1.23;;
53959;SDS011;39866;48.638;-2.020;2022-08-21T20:41:10;4.18;;;1.58;;
53959;SDS011;39866;48.638;-2.020;2022-08-21T20:43:36;4.68;;;1.70;;
53959;SDS011;39866;48.638;-2.020;2022-08-21T20:46:04;4.88;;;1.63;;
53959;SDS011;39866;48.638;-2.020;2022-08-21T20:48:35;3.08;;;1.52;;
53959;SDS011;39866;48.638;-2.020;2022-08-21T20:51:06;3.53;;;1.67;;
53959;SDS011;39866;48.638;-2.020;2022-08-21T20:53:39;3.63;;;1.70;;
53959;SDS011;39866;48.638;-2.020;2022-08-21T20:56:13;4.03;;;1.60;;
53959;SDS011;39866;48.638;-2.020;2022-08-21T20:58:46;2.33;;;1.42;;
53959;SDS011;39866;48.638;-2.020;2022-08-21T21:01:18;2.85;;;1.55;;
53959;SDS011;39866;48.638;-2.020;2022-08-21T21:03:54;2.67;;;1.40;;
53959;SDS011;39866;48.638;-2.020;2022-08-21T21:06:28;1.85;;;1.42;;
53959;SDS011;39866;48.638;-2.020;2022-08-21T21:11:38;3.38;;;1.60;;
53959;SDS011;39866;48.638;-2.020;2022-08-21T21:16:52;3.75;;;1.27;;
53959;SDS011;39866;48.638;-2.020;2022-08-21T21:22:06;3.15;;;1.48;;
53959;SDS011;39866;48.638;-2.020;2022-08-21T21:24:40;2.78;;;1.48;;
53959;SDS011;39866;48.638;-2.020;2022-08-21T21:29:55;4.30;;;1.70;;
53959;SDS011;39866;48.638;-2.020;2022-08-21T21:32:26;3.63;;;1.63;;
53959;SDS011;39866;48.638;-2.020;2022-08-21T21:34:52;4.32;;;1.70;;
53959;SDS011;39866;48.638;-2.020;2022-08-21T21:37:23;4.07;;;1.55;;
53959;SDS011;39866;48.638;-2.020;2022-08-21T21:43:04;4.10;;;2.80;;
53959;SDS011;39866;48.638;-2.020;2022-08-21T21:50:54;2.72;;;1.10;;
53959;SDS011;39866;48.638;-2.020;2022-08-21T21:53:45;3.90;;;1.30;;
53959;SDS011;39866;48.638;-2.020;2022-08-21T21:56:23;4.15;;;1.33;;
53959;SDS011;39866;48.638;-2.020;2022-08-21T22:02:32;2.88;;;1.23;;
53959;SDS011;39866;48.638;-2.020;2022-08-21T22:07:45;2.13;;;1.13;;
53959;SDS011;39866;48.638;-2.020;2022-08-21T22:10:26;3.42;;;1.40;;
53959;SDS011;39866;48.638;-2.020;2022-08-21T22:15:29;1.92;;;1.30;;
53959;SDS011;39866;48.638;-2.020;2022-08-21T22:17:57;3.55;;;1.20;;
53959;SDS011;39866;48.638;-2.020;2022-08-21T22:20:41;2.58;;;1.10;;
53959;SDS011;39866;48.638;-2.020;2022-08-21T22:23:21;2.08;;;1.20;;
53959;SDS011;39866;48.638;-2.020;2022-08-21T22:25:50;2.13;;;1.10;;
53959;SDS011;39866;48.638;-2.020;2022-08-21T22:28:19;3.20;;;1.10;;
53959;SDS011;39866;48.638;-2.020;2022-08-21T22:30:52;2.08;;;1.20;;
53959;SDS011;39866;48.638;-2.020;2022-08-21T22:33:21;1.83;;;1.30;;
53959;SDS011;39866;48.638;-2.020;2022-08-21T22:35:53;2.70;;;1.30;;
53959;SDS011;39866;48.638;-2.020;2022-08-21T22:43:48;2.50;;;1.17;;
53959;SDS011;39866;48.638;-2.020;2022-08-21T22:46:24;2.42;;;1.45;;
53959;SDS011;39866;48.638;-2.020;2022-08-21T22:48:59;3.38;;;1.40;;
53959;SDS011;39866;48.638;-2.020;2022-08-21T22:54:06;2.70;;;1.35;;
53959;SDS011;39866;48.638;-2.020;2022-08-21T22:56:36;3.17;;;1.55;;
53959;SDS011;39866;48.638;-2.020;2022-08-21T22:59:08;3.67;;;1.35;;
53959;SDS011;39866;48.638;-2.020;2022-08-21T23:01:46;4.28;;;1.20;;
53959;SDS011;39866;48.638;-2.020;2022-08-21T23:04:21;2.78;;;1.45;;
53959;SDS011;39866;48.638;-2.020;2022-08-21T23:06:50;3.30;;;1.60;;
53959;SDS011;39866;48.638;-2.020;2022-08-21T23:09:35;2.50;;;1.50;;
53959;SDS011;39866;48.638;-2.020;2022-08-21T23:12:28;4.28;;;1.88;;
53959;SDS011;39866;48.638;-2.020;2022-08-21T23:14:58;2.67;;;1.85;;
53959;SDS011;39866;48.638;-2.020;2022-08-21T23:17:33;2.97;;;1.80;;
53959;SDS011;39866;48.638;-2.020;2022-08-21T23:20:25;3.03;;;1.60;;
53959;SDS011;39866;48.638;-2.020;2022-08-21T23:23:21;5.13;;;1.80;;
53959;SDS011;39866;48.638;-2.020;2022-08-21T23:37:52;2.67;;;1.80;;
53959;SDS011;39866;48.638;-2.020;2022-08-21T23:40:36;3.05;;;1.45;;
53959;SDS011;39866;48.638;-2.020;2022-08-21T23:46:05;2.70;;;1.70;;
53959;SDS011;39866;48.638;-2.020;2022-08-21T23:56:56;3.75;;;1.83;;
